• Join FlightAware (Why Join?)
  • Login
  • US Flag 
02:59PM EST


 

Airport Tracker/Info


-or-


 

Live Flight TrackerFlight Track Log ✈ N929DE ✈ 13-Oct-2013 ✈ KCQM - KALO

Flight Track Log - Related Links

Times and Time Zones

All times are in EDT time to prevent confusion due to time zone crossing. See the N929DE flight status page for this flight to view local times or setup timezone preferences in your user account.

Time Position Orientation Groundspeed Altitude Reporting Facility
EDT Latitude Longitude Course Direction KTS MPH feet Rate Location/Type
05:50PM 47.1192 -92.5869 178° South 180 207 7,500  Level Minneapolis Center
05:51PM 47.0700 -92.5844 178° South 178 205 7,500  Level Minneapolis Center
05:52PM 47.0131 -92.5836 179° South 174 200 7,600  Climbing Minneapolis Center
05:53PM 46.9642 -92.5808 178° South 174 200 7,600  Level Minneapolis Center
05:54PM 46.9153 -92.5803 180° South 175 201 7,600  Level Minneapolis Center
05:55PM 46.8669 -92.5778 178° South 175 201 7,600  Level Minneapolis Center
05:56PM 46.8186 -92.5744 177° South 175 201 7,600 -60 Level Minneapolis Center
05:57PM 46.7703 -92.5731 179° South 174 200 7,500 -60 Descending Minneapolis Center
05:58PM 46.7233 -92.5722 179° South 172 198 7,500  Level Minneapolis Center
05:59PM 46.6639 -92.5686 178° South 175 201 7,500  Level Minneapolis Center
06:00PM 46.6158 -92.5650 177° South 174 200 7,500  Level Minneapolis Center
06:01PM 46.5675 -92.5639 179° South 174 200 7,500  Level Minneapolis Center
06:02PM 46.5189 -92.5625 179° South 174 200 7,500  Level Minneapolis Center
06:03PM 46.4708 -92.5611 179° South 174 200 7,600  Climbing Minneapolis Center
06:04PM 46.4236 -92.5575 177° South 172 198 7,600  Level Minneapolis Center
06:05PM 46.3656 -92.5522 176° South 174 200 7,600  Level Minneapolis Center
06:06PM 46.3178 -92.5494 178° South 173 199 7,600  Level Minneapolis Center
06:07PM 46.2697 -92.5503 181° South 173 199 7,600  Level Minneapolis Center
06:08PM 46.2225 -92.5483 178° South 171 197 7,600  Level Minneapolis Center
06:09PM 46.1722 -92.5453 178° South 172 198 7,600  Level Minneapolis Center
06:10PM 46.1253 -92.5433 178° South 171 197 7,600  Level Minneapolis Center
06:11PM 46.0781 -92.5419 179° South 170 196 7,600  Level Minneapolis Center
06:12PM 46.0306 -92.5389 177° South 171 197 7,600  Level Minneapolis Center
06:13PM 45.9728 -92.5358 178° South 171 197 7,600  Level Minneapolis Center
06:14PM 45.9244 -92.5344 179° South 174 200 7,600  Level Minneapolis Center
06:15PM 45.8767 -92.5344 180° South 173 199 7,600  Level Minneapolis Center
06:17PM 45.8286 -92.5303 177° South 173 199 7,600  Level Minneapolis Center
06:18PM 45.7806 -92.5283 178° South 174 200 7,600 -60 Level Minneapolis Center
06:19PM 45.7322 -92.5294 181° South 173 199 7,500 -60 Descending Minneapolis Center
06:20PM 45.6753 -92.5269 178° South 171 197 7,500  Level Minneapolis Center
06:21PM 45.6267 -92.5253 179° South 175 201 7,500  Level Minneapolis Center
06:22PM 45.5778 -92.5231 178° South 176 203 7,500  Level Minneapolis Center
06:23PM 45.5289 -92.5203 178° South 176 203 7,600  Climbing Minneapolis Center
06:24PM 45.4800 -92.5131 174° South 176 203 7,600  Level Minneapolis Center
06:25PM 45.4306 -92.5047 173° South 178 205 7,600  Level Minneapolis Center
06:26PM 45.3725 -92.5058 181° South 175 201 7,600  Level Minneapolis Center
06:27PM 45.3233 -92.5056 180° South 175 201 7,600  Level Minneapolis Center
06:28PM 45.2747 -92.5006 176° South 175 201 7,600  Level Minneapolis Center
06:29PM 45.2256 -92.5000 180° South 176 203 7,600  Level Minneapolis Center
06:30PM 45.1764 -92.4997 180° South 176 203 7,600  Level Minneapolis Center
06:31PM 45.1272 -92.4956 177° South 177 204 7,600 -60 Level Minneapolis Center
06:32PM 45.0681 -92.4939 179° South 177 204 7,500 -60 Descending Minneapolis Center
06:33PM 45.0189 -92.4928 179° South 176 203 7,500  Level Minneapolis Center
06:34PM 44.9694 -92.4903 178° South 177 204 7,500  Level Minneapolis Center
06:35PM 44.9206 -92.4886 179° South 177 204 7,500  Level Minneapolis Center
06:36PM 44.8708 -92.4856 178° South 178 205 7,600  Climbing Minneapolis Center
06:37PM 44.8214 -92.4850 180° South 177 204 7,600 -60 Level Minneapolis Center
06:38PM 44.7714 -92.4831 178° South 179 206 7,500 -60 Descending Minneapolis Center
06:39PM 44.7111 -92.4797 178° South 181 208 7,500  Level Minneapolis Center
06:40PM 44.6606 -92.4778 178° South 181 208 7,500  Level Minneapolis Center
06:41PM 44.6092 -92.4772 180° South 183 211 7,500  Level Minneapolis Center
06:42PM 44.5578 -92.4736 177° South 184 212 7,500  Level Minneapolis Center
06:43PM 44.5064 -92.4714 178° South 185 213 7,500  Level Minneapolis Center
06:44PM 44.4547 -92.4719 180° South 185 213 7,500  Level Minneapolis Center
06:45PM 44.4031 -92.4689 178° South 186 214 7,500  Level Minneapolis Center
06:47PM 44.3397 -92.4642 177° South 185 213 7,500  Level Minneapolis Center
06:48PM 44.2872 -92.4650 181° South 186 214 7,500  Level Minneapolis Center
06:49PM 44.2306 -92.4619 178° South 187 215 7,500  Level Minneapolis Center
06:50PM 44.1803 -92.4608 179° South 184 212 7,500  Level Minneapolis Center
06:51PM 44.1233 -92.4592 179° South 191 220 7,500  Level Minneapolis Center
06:52PM 44.0719 -92.4567 178° South 187 215 7,500  Level Minneapolis Center
06:53PM 44.0158 -92.4556 179° South 188 216 7,500  Level Minneapolis Center
06:54PM 43.9644 -92.4533 178° South 187 215 7,500  Level Minneapolis Center
06:55PM 43.9083 -92.4511 178° South 185 213 7,500  Level Minneapolis Center
06:56PM 43.8561 -92.4489 178° South 188 216 7,500  Level Minneapolis Center
06:57PM 43.8006 -92.4472 179° South 187 215 7,500  Level Minneapolis Center
06:58PM 43.7494 -92.4450 178° South 185 213 7,500  Level Minneapolis Center
06:59PM 43.6944 -92.4431 179° South 185 213 7,500  Level Minneapolis Center
07:00PM 43.6389 -92.4414 179° South 186 214 7,500  Level Minneapolis Center
07:01PM 43.5886 -92.4389 178° South 183 211 7,500  Level Minneapolis Center
07:02PM 43.5336 -92.4364 178° South 184 212 7,500  Level Minneapolis Center
07:03PM 43.4817 -92.4350 179° South 187 215 7,500  Level Minneapolis Center
07:04PM 43.4272 -92.4325 178° South 183 211 7,500  Level Minneapolis Center
07:05PM 43.3753 -92.4308 179° South 189 217 7,500 -180 Level Minneapolis Center
07:06PM 43.3186 -92.4286 178° South 191 220 7,200 -360 Descending Minneapolis Center
07:07PM 43.2625 -92.4258 178° South 201 231 6,800 -420 Descending Minneapolis Center
07:08PM 43.2061 -92.4256 180° South 203 234 6,400 -480 Descending Minneapolis Center
07:09PM 43.1489 -92.4231 178° South 205 236 5,900 -480 Descending Minneapolis Center
07:10PM 43.0908 -92.4219 179° South 203 234 5,500 -480 Descending Chicago Center
07:11PM 43.0375 -92.4200 178° South 200 230 5,000 -540 Descending Chicago Center
07:12PM 42.9861 -92.4150 176° South 194 223 4,400 -600 Descending Chicago Center
07:13PM 42.9364 -92.4153 180° South 188 216 3,800 -420 Descending Chicago Center
07:14PM 42.8756 -92.4117 178° South 186 214 3,600 -120 Descending Chicago Center
07:15PM 42.8297 -92.4106 179° South 178 205 3,600 -240 Level Chicago Center
07:16PM 42.7889 -92.4072 177° South 165 190 3,200 -420 Descending Chicago Center
07:17PM 42.7475 -92.4064 179° South 157 181 2,800 -300 Descending Chicago Center
07:18PM 42.7075 -92.4053 179° South 152 175 2,700 -300 Descending Chicago Center
07:20PM 42.6617 -92.4103 185° South 157 181 2,200 -300 Descending Chicago Center
07:21PM 42.6306 -92.4392 214° Southwest 148 170 2,200 -180 Level Chicago Center
07:22PM 42.5994 -92.4581 204° Southwest 139 160 1,900 -300 Descending Chicago Center
07:23PM 42.5747 -92.4325 143° Southeast 127 146 1,600 -300 Descending Chicago Center